Terminal Aerodrome Forecast
Issued by NWS

Home | Current Version | Previous Version | Graphics & Text | Print | Product List | Glossary On
Versions: 1 2 3 4 5 6 7 8 9 10 11 12 13 14 15 16 17 18
000
FTUS43 KGRB 260520
TAFAUW
TAF
KAUW 260520Z 2606/2706 28005KT P6SM SCT200
     FM261500 27007KT P6SM SCT045
     FM270100 VRB03KT P6SM SCT120 BKN200=

USA.gov is the U.S. government's official web portal to all federal, state and local government web resources and services.